This is the latest recevied weather packets stored in our database for station/object KD2ZLA. If no packets are shown the sender has not sent any weather packets the latest 10 day(s).
| Time | Temp. | Humidity | Pressure | Rain* | Wind** | Luminosity | Snow |
|---|---|---|---|---|---|---|---|
| 1778005962 | 20° C | 66% | 1001.9 hPa | 0 mm | - | 364 W/m² | - |
| 1778005659 | 19.44° C | 68% | 1001.9 hPa | 0 mm | - | 797 W/m² | - |
| 1778005355 | 18.89° C | 70% | 1001.8 hPa | 0 mm | - | 486 W/m² | - |
| 1778005052 | 18.89° C | 71% | 1002.1 hPa | 0 mm | - | 711 W/m² | - |
| 1778004750 | 18.33° C | 74% | 1002.1 hPa | 0 mm | - | 701 W/m² | - |
| 1778004446 | 17.78° C | 75% | 1002 hPa | 0 mm | - | 743 W/m² | - |
| 1778004142 | 17.78° C | 78% | 1002.1 hPa | 0 mm | - | 804 W/m² | - |
| 1778003839 | 16.67° C | 82% | 1002.4 hPa | 0 mm | - | 809 W/m² | - |
| 1778003535 | 16.11° C | 83% | 1002.1 hPa | 0 mm | - | 384 W/m² | - |
| 1778003232 | 16.11° C | 84% | 1002.2 hPa | 0 mm | - | 175 W/m² | - |
| 1778002929 | 16.67° C | 81% | 1002.3 hPa | 0 mm | - | 192 W/m² | - |
| 1778002625 | 16.67° C | 79% | 1002.4 hPa | 0 mm | - | 149 W/m² | - |
| 1778002322 | 16.67° C | 79% | 1002.5 hPa | 0 mm | - | 95 W/m² | - |
| 1778002019 | 16.67° C | 79% | 1002.3 hPa | 0 mm | - | 94 W/m² | - |
| 1778001716 | 16.67° C | 79% | 1002.2 hPa | 0.51 mm | - | 100 W/m² | - |
| 1778001415 | 16.67° C | 79% | 1002.1 hPa | 0.51 mm | - | 114 W/m² | - |
| 1778001113 | 17.22° C | 76% | 1002.1 hPa | 0.51 mm | - | 95 W/m² | - |
| 1778000810 | 17.78° C | 74% | 1002.1 hPa | 0.51 mm | - | 136 W/m² | - |
| 1778000506 | 18.89° C | 66% | 1001.8 hPa | 0 mm | - | 55 W/m² | - |
| 1778000206 | 20° C | 60% | 1001.5 hPa | 0 mm | - | 35 W/m² | - |
| 1777999903 | 20.56° C | 57% | 1001.4 hPa | 0 mm | - | 59 W/m² | - |
| 1777999598 | 20.56° C | 58% | 1001.3 hPa | 0 mm | - | 133 W/m² | - |
| 1777999296 | 20° C | 58% | 1001.3 hPa | 0 mm | - | 74 W/m² | - |
| 1777998994 | 20.56° C | 58% | 1001.5 hPa | 0 mm | - | 71 W/m² | - |
| 1777998692 | 20.56° C | 58% | 1001.3 hPa | 0 mm | - | 117 W/m² | - |
* Rain latest hour (hover to see other rain measurements)
** Current wind speed in m/s (hover to see current wind gust speed)